createdAt,value
2023-04-27T00:00:18.169Z,99314.19
2023-04-27T00:02:52.616Z,99313.47
2023-04-27T00:05:25.666Z,99304.44
2023-04-27T00:07:58.801Z,99299.91
2023-04-27T00:10:31.870Z,99308.16
2023-04-27T00:13:04.746Z,99297.47
2023-04-27T00:15:37.773Z,99297.88
2023-04-27T00:18:12.111Z,99305.00
2023-04-27T00:20:44.965Z,99305.75
2023-04-27T00:23:17.961Z,99299.72
2023-04-27T00:25:50.756Z,99298.72
2023-04-27T00:28:23.581Z,99301.53
2023-04-27T00:30:56.358Z,99292.06
2023-04-27T00:33:30.535Z,99288.78
2023-04-27T00:36:03.825Z,99289.53
2023-04-27T00:38:36.970Z,99283.78
2023-04-27T00:41:11.365Z,99282.31
2023-04-27T00:43:45.977Z,99280.38
2023-04-27T00:46:19.738Z,99286.63
2023-04-27T00:48:54.410Z,99278.25
2023-04-27T00:51:30.143Z,99281.22
2023-04-27T00:54:03.243Z,99287.25
2023-04-27T00:56:37.807Z,99281.41
2023-04-27T00:59:10.762Z,99284.34
2023-04-27T01:01:43.777Z,99284.25
2023-04-27T01:04:18.971Z,99282.63
2023-04-27T01:06:51.855Z,99294.06
2023-04-27T01:09:24.790Z,99293.72
2023-04-27T01:11:58.260Z,99282.78
2023-04-27T01:14:31.152Z,99285.44
2023-04-27T01:17:04.002Z,99289.00
2023-04-27T01:19:38.206Z,99292.16
2023-04-27T01:22:11.037Z,99279.22
2023-04-27T01:24:45.543Z,99285.56
2023-04-27T01:27:18.411Z,99272.78
2023-04-27T01:29:51.277Z,99276.63
2023-04-27T01:32:24.165Z,99283.44
2023-04-27T01:34:58.785Z,99278.72
2023-04-27T01:37:32.408Z,99279.59
2023-04-27T01:40:08.290Z,99280.44
2023-04-27T01:42:41.360Z,99281.88
2023-04-27T01:45:14.704Z,99284.81
2023-04-27T01:47:47.571Z,99288.31
2023-04-27T01:50:20.869Z,99287.41
2023-04-27T01:52:53.699Z,99286.25
2023-04-27T01:55:29.133Z,99295.81
2023-04-27T01:58:01.904Z,99293.88
2023-04-27T02:00:35.628Z,99299.34
2023-04-27T02:03:08.727Z,99295.38
2023-04-27T02:05:41.808Z,99300.56
2023-04-27T02:08:14.699Z,99298.75
2023-04-27T02:10:48.916Z,99312.38
2023-04-27T02:13:23.062Z,99305.97
2023-04-27T02:15:56.215Z,99302.25
2023-04-27T02:18:29.311Z,99293.50
2023-04-27T02:21:02.103Z,99300.31
2023-04-27T02:23:35.694Z,99303.53
2023-04-27T02:26:46.687Z,99303.63
2023-04-27T02:29:19.663Z,99304.72
2023-04-27T02:31:53.014Z,99308.75
2023-04-27T02:34:25.984Z,99302.69
2023-04-27T02:36:59.033Z,99306.97
2023-04-27T02:39:32.222Z,99307.97
2023-04-27T02:42:06.628Z,99305.50
2023-04-27T02:44:39.414Z,99309.94
2023-04-27T02:47:12.480Z,99297.28
2023-04-27T02:49:45.429Z,99293.44
2023-04-27T02:52:18.212Z,99298.34
2023-04-27T02:54:50.959Z,99303.19
2023-04-27T02:57:25.089Z,99305.47
2023-04-27T02:59:58.213Z,99310.53
2023-04-27T03:02:31.048Z,99320.16
2023-04-27T03:05:05.547Z,99311.84
2023-04-27T03:07:38.296Z,99325.97
2023-04-27T03:10:11.688Z,99319.91
2023-04-27T03:12:45.809Z,99322.44
2023-04-27T03:15:18.758Z,99316.34
2023-04-27T03:17:51.799Z,99319.78
2023-04-27T03:20:24.645Z,99320.59
2023-04-27T03:23:00.001Z,99330.13
2023-04-27T03:25:32.792Z,99332.47
2023-04-27T03:28:07.843Z,99330.47
2023-04-27T03:30:42.870Z,99331.16
2023-04-27T03:33:16.129Z,99335.47
2023-04-27T03:35:56.193Z,99331.13
2023-04-27T03:38:29.438Z,99337.94
2023-04-27T03:41:02.554Z,99330.63
2023-04-27T03:43:36.994Z,99332.03
2023-04-27T03:46:09.851Z,99329.50
2023-04-27T03:48:44.129Z,99322.53
2023-04-27T03:51:17.223Z,99325.31
2023-04-27T03:53:52.021Z,99328.16
2023-04-27T03:56:24.846Z,99323.00
2023-04-27T03:58:58.974Z,99322.25
2023-04-27T04:01:39.916Z,99322.41
2023-04-27T04:04:13.091Z,99323.59
2023-04-27T04:06:45.909Z,99323.75
2023-04-27T04:09:19.098Z,99326.09
2023-04-27T04:11:52.754Z,99328.34
2023-04-27T04:14:28.612Z,99332.38
2023-04-27T04:17:01.382Z,99331.91
2023-04-27T04:19:35.356Z,99338.34
2023-04-27T04:22:08.132Z,99331.59
2023-04-27T04:24:41.122Z,99317.28
2023-04-27T04:27:14.087Z,99321.81
2023-04-27T04:29:48.265Z,99322.28
2023-04-27T04:32:22.825Z,99321.56
2023-04-27T04:34:56.448Z,99317.84
2023-04-27T04:37:29.537Z,99325.00
2023-04-27T04:40:09.185Z,99323.44
2023-04-27T04:42:42.768Z,99317.00
2023-04-27T04:45:17.337Z,99318.56
2023-04-27T04:47:50.473Z,99328.00
2023-04-27T04:50:23.424Z,99335.69
2023-04-27T04:52:57.794Z,99350.91
2023-04-27T04:55:30.736Z,99345.72
2023-04-27T04:58:03.532Z,99358.66
2023-04-27T05:00:38.294Z,99359.38
2023-04-27T05:03:11.161Z,99355.44
2023-04-27T05:05:44.061Z,99355.09
2023-04-27T05:08:17.487Z,99357.44
2023-04-27T05:10:51.800Z,99347.81
2023-04-27T05:13:25.676Z,99350.41
2023-04-27T05:16:00.398Z,99352.44
2023-04-27T05:18:33.676Z,99361.75
2023-04-27T05:21:06.592Z,99367.56
2023-04-27T05:23:39.415Z,99356.78
2023-04-27T05:26:13.134Z,99356.28
2023-04-27T05:28:47.060Z,99360.72
2023-04-27T05:31:21.601Z,99351.88
2023-04-27T05:33:54.478Z,99362.31
2023-04-27T05:36:28.520Z,99368.44
2023-04-27T05:39:01.559Z,99364.59
2023-04-27T05:41:34.320Z,99366.78
2023-04-27T05:44:07.593Z,99357.81
2023-04-27T05:46:41.896Z,99361.88
2023-04-27T05:49:14.916Z,99365.16
2023-04-27T05:51:48.179Z,99357.66
2023-04-27T05:54:22.122Z,99367.22
2023-04-27T05:56:54.952Z,99372.31
2023-04-27T05:59:29.305Z,99375.41
2023-04-27T06:02:03.564Z,99369.66
2023-04-27T06:04:37.212Z,99372.81
2023-04-27T06:07:10.432Z,99371.13
2023-04-27T06:09:43.381Z,99375.69
2023-04-27T06:12:16.731Z,99377.16
2023-04-27T06:14:49.557Z,99374.28
2023-04-27T06:17:23.950Z,99374.13
2023-04-27T06:19:56.697Z,99383.91
2023-04-27T06:22:29.525Z,99387.75
2023-04-27T06:25:02.375Z,99385.50
2023-04-27T06:27:35.245Z,99387.53
2023-04-27T06:30:09.483Z,99389.53
2023-04-27T06:32:43.691Z,99388.78
2023-04-27T06:35:16.674Z,99380.09
2023-04-27T06:37:49.574Z,99387.25
2023-04-27T06:40:22.692Z,99388.78
2023-04-27T06:42:55.591Z,99389.59
2023-04-27T06:45:28.425Z,99388.03
2023-04-27T06:48:02.791Z,99385.59
2023-04-27T06:50:35.592Z,99391.84
2023-04-27T06:53:08.439Z,99395.06
2023-04-27T06:55:43.951Z,99397.44
2023-04-27T06:58:18.138Z,99391.13
2023-04-27T07:00:50.998Z,99395.69
2023-04-27T07:03:25.185Z,99397.84
2023-04-27T07:05:59.204Z,99391.25
2023-04-27T07:08:31.987Z,99389.91
2023-04-27T07:11:04.810Z,99396.19
2023-04-27T07:13:37.617Z,99393.09
2023-04-27T07:16:10.468Z,99407.94
2023-04-27T07:18:44.653Z,99403.22
2023-04-27T07:21:17.453Z,99400.25
2023-04-27T07:23:50.286Z,99398.03
2023-04-27T07:26:24.707Z,99402.50
2023-04-27T07:28:57.505Z,99403.16
2023-04-27T07:31:30.327Z,99400.94
2023-04-27T07:34:04.922Z,99406.19
2023-04-27T07:36:38.227Z,99406.53
2023-04-27T07:39:11.626Z,99397.47
2023-04-27T07:41:44.553Z,99404.84
2023-04-27T07:44:18.446Z,99391.31
2023-04-27T07:46:54.116Z,99397.50
2023-04-27T07:49:28.268Z,99396.09
2023-04-27T07:52:01.248Z,99395.06
2023-04-27T07:54:34.071Z,99404.03
2023-04-27T07:57:09.637Z,99394.47
2023-04-27T07:59:42.489Z,99403.19
2023-04-27T08:02:19.674Z,99410.88
2023-04-27T08:04:54.697Z,99402.16
2023-04-27T08:07:28.162Z,99398.50
2023-04-27T08:10:01.168Z,99400.06
2023-04-27T08:12:34.054Z,99395.59
2023-04-27T08:15:08.226Z,99403.28
2023-04-27T08:17:42.071Z,99398.16
2023-04-27T08:20:16.441Z,99396.34
2023-04-27T08:22:51.926Z,99403.59
2023-04-27T08:25:24.847Z,99400.44
2023-04-27T08:27:58.189Z,99399.09
2023-04-27T08:30:30.933Z,99400.00
2023-04-27T08:33:03.920Z,99400.69
2023-04-27T08:35:38.201Z,99396.34
2023-04-27T08:38:11.159Z,99399.66
2023-04-27T08:40:55.692Z,99398.56
2023-04-27T08:43:35.317Z,99394.09
2023-04-27T08:46:08.101Z,99396.97
2023-04-27T08:48:40.942Z,99395.22
2023-04-27T08:51:16.285Z,99386.81
2023-04-27T08:53:51.397Z,99394.72
2023-04-27T08:56:27.566Z,99385.41
2023-04-27T08:59:02.344Z,99378.31
2023-04-27T09:01:35.344Z,99378.38
2023-04-27T09:04:08.489Z,99374.53
2023-04-27T09:06:43.093Z,99372.31
2023-04-27T09:09:23.888Z,99371.31
2023-04-27T09:11:56.854Z,99368.50
2023-04-27T09:14:30.834Z,99366.03
2023-04-27T09:17:03.581Z,99369.88
2023-04-27T09:19:36.414Z,99367.75
2023-04-27T09:22:13.679Z,99370.63
2023-04-27T09:24:52.137Z,99373.78
2023-04-27T09:27:24.930Z,99374.09
2023-04-27T09:29:57.918Z,99368.72
2023-04-27T09:32:30.701Z,99360.59
2023-04-27T09:35:04.059Z,99368.75
2023-04-27T09:37:38.271Z,99372.25
2023-04-27T09:40:11.776Z,99357.34
2023-04-27T09:42:44.704Z,99357.13
2023-04-27T09:45:18.762Z,99357.03
2023-04-27T09:47:52.081Z,99354.78
2023-04-27T09:50:24.865Z,99351.84
2023-04-27T09:52:59.316Z,99348.59
2023-04-27T09:55:35.635Z,99349.16
2023-04-27T09:58:28.857Z,99356.97
2023-04-27T10:01:09.276Z,99345.19
2023-04-27T10:03:56.868Z,99343.13
2023-04-27T10:06:58.856Z,99340.66
2023-04-27T10:09:38.084Z,99337.53
2023-04-27T10:12:19.758Z,99347.09
2023-04-27T10:14:54.069Z,99336.81
2023-04-27T10:17:31.264Z,99337.38
2023-04-27T10:20:07.275Z,99343.19
2023-04-27T10:22:40.967Z,99345.22
2023-04-27T10:25:18.791Z,99339.56
2023-04-27T10:27:53.297Z,99341.13
2023-04-27T10:30:27.727Z,99336.75
2023-04-27T10:33:05.642Z,99329.19
2023-04-27T10:35:40.487Z,99331.41
2023-04-27T10:38:18.182Z,99334.53
2023-04-27T10:40:57.810Z,99321.53
2023-04-27T10:43:31.942Z,99314.13
2023-04-27T10:46:12.551Z,99327.97
2023-04-27T10:48:46.109Z,99317.19
2023-04-27T10:51:18.937Z,99327.75
2023-04-27T10:53:53.925Z,99324.13
2023-04-27T10:56:28.166Z,99312.50
2023-04-27T10:59:04.203Z,99313.16
2023-04-27T11:01:38.124Z,99316.13
2023-04-27T11:04:10.950Z,99313.53
2023-04-27T11:06:45.996Z,99314.59
2023-04-27T11:09:27.038Z,99314.72
2023-04-27T11:12:01.832Z,99316.00
2023-04-27T11:14:36.958Z,99309.03
2023-04-27T11:17:10.163Z,99314.97
2023-04-27T11:19:47.361Z,99316.13
2023-04-27T11:22:20.208Z,99317.31
2023-04-27T11:24:54.101Z,99308.59
2023-04-27T11:27:38.329Z,99311.13
2023-04-27T11:30:22.177Z,99315.69
2023-04-27T11:32:54.958Z,99316.84
2023-04-27T11:41:26.821Z,99310.94
2023-04-27T11:44:08.353Z,99301.75
2023-04-27T11:46:45.365Z,99302.47
2023-04-27T11:49:18.344Z,99307.47
2023-04-27T11:51:51.583Z,99305.44
2023-04-27T11:54:29.599Z,99306.97
2023-04-27T11:57:09.284Z,99304.63
2023-04-27T11:59:43.616Z,99292.91
2023-04-27T12:02:17.085Z,99301.75
2023-04-27T12:04:50.434Z,99297.41
2023-04-27T12:07:23.327Z,99298.00
2023-04-27T12:09:56.136Z,99292.16
2023-04-27T12:12:29.011Z,99292.69
2023-04-27T12:15:03.434Z,99291.19
2023-04-27T12:17:36.266Z,99288.44
2023-04-27T12:20:10.191Z,99290.22
2023-04-27T12:22:42.930Z,99286.28
2023-04-27T12:25:17.525Z,99280.47
2023-04-27T12:27:50.440Z,99272.63
2023-04-27T12:30:24.897Z,99280.44
2023-04-27T12:32:59.588Z,99265.47
2023-04-27T12:35:32.759Z,99286.09
2023-04-27T12:38:05.457Z,99281.34
2023-04-27T12:40:38.841Z,99284.41
2023-04-27T12:43:12.781Z,99281.50
2023-04-27T12:45:46.926Z,99280.91
2023-04-27T12:48:19.875Z,99281.66
2023-04-27T12:50:52.783Z,99270.50
2023-04-27T12:53:25.678Z,99268.41
2023-04-27T12:56:00.677Z,99258.53
2023-04-27T12:58:33.462Z,99255.84
2023-04-27T13:01:14.738Z,99269.81
2023-04-27T13:03:48.554Z,99272.72
2023-04-27T13:06:22.899Z,99249.88
2023-04-27T13:08:55.920Z,99255.50
2023-04-27T13:11:28.795Z,99255.31
2023-04-27T13:14:02.113Z,99253.22
2023-04-27T13:16:36.492Z,99255.34
2023-04-27T13:19:09.417Z,99249.47
2023-04-27T13:21:42.267Z,99261.41
2023-04-27T13:24:17.533Z,99250.56
2023-04-27T13:26:50.452Z,99241.91
2023-04-27T13:29:24.475Z,99242.72
2023-04-27T13:31:58.919Z,99241.03
2023-04-27T13:34:31.731Z,99234.63
2023-04-27T13:37:04.589Z,99226.63
2023-04-27T13:39:38.210Z,99227.72
2023-04-27T13:42:11.462Z,99224.94
2023-04-27T13:44:44.319Z,99228.53
2023-04-27T13:47:18.614Z,99229.63
2023-04-27T13:49:51.366Z,99212.81
2023-04-27T13:52:24.130Z,99226.00
2023-04-27T13:54:57.007Z,99229.28
2023-04-27T13:57:29.740Z,99226.03
2023-04-27T14:00:03.412Z,99227.41
2023-04-27T14:02:43.026Z,99223.50
2023-04-27T14:05:15.879Z,99216.47
2023-04-27T14:07:48.646Z,99217.06
2023-04-27T14:10:21.462Z,99220.97
2023-04-27T14:12:54.247Z,99213.34
2023-04-27T14:15:27.504Z,99214.59
2023-04-27T14:18:01.719Z,99216.63
2023-04-27T14:20:34.648Z,99203.78
2023-04-27T14:23:07.517Z,99205.34
2023-04-27T14:25:40.273Z,99208.34
2023-04-27T14:28:15.191Z,99197.72
2023-04-27T14:30:48.303Z,99209.91
2023-04-27T14:33:22.395Z,99205.25
2023-04-27T14:35:56.232Z,99202.66
2023-04-27T14:38:29.020Z,99199.88
2023-04-27T14:41:04.455Z,99203.16
2023-04-27T14:43:37.148Z,99201.75
2023-04-27T14:46:20.341Z,99193.13
2023-04-27T14:48:55.287Z,99194.44
2023-04-27T14:51:28.803Z,99192.03
2023-04-27T14:54:02.297Z,99191.78
2023-04-27T14:56:35.132Z,99194.97
2023-04-27T14:59:07.952Z,99187.38
2023-04-27T15:01:40.756Z,99185.94
2023-04-27T15:04:15.118Z,99196.72
2023-04-27T15:06:48.008Z,99183.75
2023-04-27T15:09:20.964Z,99191.13
2023-04-27T15:11:53.802Z,99190.75
2023-04-27T15:14:26.702Z,99189.16
2023-04-27T15:16:59.540Z,99191.34
2023-04-27T15:19:33.917Z,99194.94
2023-04-27T15:22:07.167Z,99187.31
2023-04-27T15:24:40.409Z,99187.31
2023-04-27T15:27:13.386Z,99190.59
2023-04-27T15:29:46.275Z,99194.38
2023-04-27T15:32:19.153Z,99197.66
2023-04-27T15:34:53.220Z,99190.88
2023-04-27T15:37:26.712Z,99198.69
2023-04-27T15:39:59.470Z,99194.13
2023-04-27T15:42:32.269Z,99191.56
2023-04-27T15:45:06.301Z,99192.25
2023-04-27T15:47:40.336Z,99180.44
2023-04-27T15:50:14.624Z,99182.13
2023-04-27T15:52:47.716Z,99182.13
2023-04-27T15:55:20.985Z,99182.34
2023-04-27T15:57:54.380Z,99171.50
2023-04-27T16:00:27.409Z,99175.63
2023-04-27T16:03:00.632Z,99172.59
2023-04-27T16:05:35.014Z,99180.38
2023-04-27T16:08:07.901Z,99178.41
2023-04-27T16:10:40.803Z,99167.44
2023-04-27T16:13:13.674Z,99162.19
2023-04-27T16:15:46.391Z,99165.25
2023-04-27T16:18:19.184Z,99156.31
2023-04-27T16:20:53.457Z,99149.50
2023-04-27T16:23:26.454Z,99145.66
2023-04-27T16:25:59.190Z,99147.50
2023-04-27T16:28:32.806Z,99139.97
2023-04-27T16:31:05.699Z,99138.56
2023-04-27T16:33:38.583Z,99133.75
2023-04-27T16:36:12.740Z,99132.09
2023-04-27T16:38:46.295Z,99125.94
2023-04-27T16:41:19.217Z,99118.06
2023-04-27T16:43:52.114Z,99118.47
2023-04-27T16:46:24.946Z,99114.75
2023-04-27T16:48:57.798Z,99117.53
2023-04-27T16:51:32.512Z,99117.78
2023-04-27T16:54:05.278Z,99115.19
2023-04-27T16:56:38.146Z,99115.28
2023-04-27T16:59:12.748Z,99113.66
2023-04-27T17:01:45.739Z,99125.91
2023-04-27T17:04:18.705Z,99116.88
2023-04-27T17:06:52.912Z,99125.69
2023-04-27T17:13:45.108Z,99122.13
2023-04-27T17:16:18.170Z,99124.06
2023-04-27T17:18:52.098Z,99130.94
2023-04-27T17:21:25.124Z,99125.25
2023-04-27T17:23:59.274Z,99124.25
2023-04-27T17:26:32.708Z,99124.56
2023-04-27T17:29:05.641Z,99122.91
2023-04-27T17:31:38.467Z,99117.97
2023-04-27T17:34:12.204Z,99116.38
2023-04-27T17:36:45.171Z,99117.34
2023-04-27T17:39:22.675Z,99108.22
2023-04-27T17:41:56.829Z,99117.53
2023-04-27T17:44:29.677Z,99109.47
2023-04-27T17:47:02.489Z,99105.69
2023-04-27T17:49:35.398Z,99115.56
2023-04-27T17:52:08.200Z,99114.50
2023-04-27T17:54:43.288Z,99112.06
2023-04-27T17:57:16.145Z,99109.34
2023-04-27T17:59:50.001Z,99110.41
2023-04-27T18:02:23.195Z,99115.28
2023-04-27T18:04:56.359Z,99115.78
2023-04-27T18:07:29.198Z,99112.53
2023-04-27T18:10:03.841Z,99110.84
2023-04-27T18:12:36.760Z,99113.41
2023-04-27T18:15:37.994Z,99107.31
2023-04-27T18:18:23.229Z,99107.75
2023-04-27T18:20:58.474Z,99121.56
2023-04-27T18:23:44.110Z,99111.41
2023-04-27T18:27:38.116Z,99123.38
2023-04-27T18:30:32.035Z,99124.31
2023-04-27T18:33:07.877Z,99127.25
2023-04-27T18:35:41.998Z,99124.38
2023-04-27T18:38:14.848Z,99127.03
2023-04-27T18:40:47.693Z,99132.66
2023-04-27T18:43:20.651Z,99126.47
2023-04-27T18:45:54.879Z,99128.88
2023-04-27T18:48:27.828Z,99126.25
2023-04-27T18:51:00.697Z,99129.44
2023-04-27T18:53:33.582Z,99126.00
2023-04-27T18:56:08.045Z,99131.00
2023-04-27T18:58:41.870Z,99126.97
2023-04-27T19:01:21.246Z,99126.63
2023-04-27T19:03:55.027Z,99131.34
2023-04-27T19:06:27.941Z,99128.63
2023-04-27T19:09:00.853Z,99136.72
2023-04-27T19:11:33.837Z,99134.00
2023-04-27T19:14:06.879Z,99139.38
2023-04-27T19:16:43.788Z,99139.84
2023-04-27T19:19:19.235Z,99146.25
2023-04-27T19:21:53.727Z,99148.69
2023-04-27T19:24:27.460Z,99145.19
2023-04-27T19:30:02.595Z,99140.03
2023-04-27T19:32:37.887Z,99135.72
2023-04-27T19:35:12.663Z,99137.81
2023-04-27T19:37:46.063Z,99136.88
2023-04-27T19:40:19.619Z,99133.69
2023-04-27T19:42:53.474Z,99139.78
2023-04-27T19:45:27.795Z,99130.41
2023-04-27T19:48:02.380Z,99130.47
2023-04-27T19:50:35.883Z,99137.34
2023-04-27T19:53:09.690Z,99130.16
2023-04-27T19:55:42.607Z,99135.81
2023-04-27T19:58:15.400Z,99131.97
2023-04-27T20:00:48.242Z,99131.00
2023-04-27T20:03:22.992Z,99132.75
2023-04-27T20:05:56.449Z,99137.16
2023-04-27T20:08:29.432Z,99147.22
2023-04-27T20:11:02.282Z,99148.94
2023-04-27T20:13:35.075Z,99139.72
2023-04-27T20:16:09.889Z,99142.22
2023-04-27T20:18:45.237Z,99145.50
2023-04-27T20:21:18.331Z,99144.41
2023-04-27T20:23:51.555Z,99136.81
2023-04-27T20:26:24.447Z,99134.06
2023-04-27T20:28:57.289Z,99135.09
2023-04-27T20:31:30.223Z,99134.72
2023-04-27T20:34:04.322Z,99130.00
2023-04-27T20:36:37.115Z,99131.00
2023-04-27T20:39:11.907Z,99130.16
2023-04-27T20:41:44.824Z,99133.94
2023-04-27T20:44:18.011Z,99124.06
2023-04-27T20:46:50.855Z,99125.56
2023-04-27T20:49:34.325Z,99131.03
2023-04-27T20:52:08.251Z,99120.94
2023-04-27T20:54:41.443Z,99118.50
2023-04-27T20:57:14.510Z,99119.59
2023-04-27T20:59:47.380Z,99122.56
2023-04-27T21:02:20.221Z,99115.94
2023-04-27T21:04:54.484Z,99107.50
2023-04-27T21:07:27.455Z,99109.53
2023-04-27T21:10:06.247Z,99116.09
2023-04-27T21:12:39.313Z,99116.25
2023-04-27T21:15:12.727Z,99115.63
2023-04-27T21:17:45.644Z,99119.28
2023-04-27T21:20:20.089Z,99118.03
2023-04-27T21:22:53.026Z,99118.25
2023-04-27T21:25:26.093Z,99118.75
2023-04-27T21:27:58.881Z,99115.53
2023-04-27T21:30:31.664Z,99108.63
2023-04-27T21:33:04.720Z,99107.31
2023-04-27T21:35:39.285Z,99101.72
2023-04-27T21:38:12.416Z,99100.56
2023-04-27T21:40:45.268Z,99098.06
2023-04-27T21:43:18.125Z,99102.84
2023-04-27T21:45:50.895Z,99100.50
2023-04-27T21:48:23.950Z,99093.09
2023-04-27T21:50:58.202Z,99094.13
2023-04-27T21:53:31.495Z,99084.31
2023-04-27T21:56:04.359Z,99079.03
2023-04-27T21:58:37.046Z,99079.38
2023-04-27T22:01:10.333Z,99077.47
2023-04-27T22:03:43.336Z,99073.03
2023-04-27T22:06:17.774Z,99079.38
2023-04-27T22:08:50.895Z,99073.53
2023-04-27T22:11:23.717Z,99070.50
2023-04-27T22:13:57.420Z,99064.00
2023-04-27T22:16:30.477Z,99063.69
2023-04-27T22:19:03.778Z,99072.72
2023-04-27T22:21:37.982Z,99074.69
2023-04-27T22:24:10.800Z,99075.59
2023-04-27T22:26:43.625Z,99070.44
2023-04-27T22:29:16.884Z,99072.59
2023-04-27T22:31:49.782Z,99075.63
2023-04-27T22:34:22.719Z,99080.53
2023-04-27T22:36:56.968Z,99075.25
2023-04-27T22:39:31.625Z,99072.28
2023-04-27T22:42:04.530Z,99069.81
2023-04-27T22:44:37.312Z,99067.50
2023-04-27T22:47:10.794Z,99066.66
2023-04-27T22:49:43.640Z,99065.88
2023-04-27T22:52:18.020Z,99071.63
2023-04-27T22:54:50.853Z,99059.63
2023-04-27T22:57:23.731Z,99051.78
2023-04-27T22:59:56.511Z,99055.06
2023-04-27T23:02:29.780Z,99058.59
2023-04-27T23:05:02.688Z,99060.00
2023-04-27T23:07:37.112Z,99055.22
2023-04-27T23:10:11.105Z,99050.78
2023-04-27T23:12:44.031Z,99052.66
2023-04-27T23:15:16.969Z,99052.22
2023-04-27T23:17:49.896Z,99052.53
2023-04-27T23:22:59.748Z,99053.31
2023-04-27T23:25:33.550Z,99046.03
2023-04-27T23:28:06.690Z,99042.56
2023-04-27T23:30:39.546Z,99049.06
2023-04-27T23:33:12.947Z,99042.06
2023-04-27T23:35:45.815Z,99044.25
2023-04-27T23:38:20.157Z,99041.84
2023-04-27T23:40:52.960Z,99043.53
2023-04-27T23:43:26.011Z,99039.16
2023-04-27T23:45:59.107Z,99034.38
2023-04-27T23:48:31.890Z,99029.22
2023-04-27T23:51:05.763Z,99023.66
2023-04-27T23:53:39.879Z,99034.63
2023-04-27T23:56:17.490Z,99032.59
2023-04-27T23:58:50.391Z,99025.31
